createdAt,value
2023-02-06T00:01:03.585Z,59.42
2023-02-06T00:03:30.996Z,59.20
2023-02-06T00:06:14.078Z,59.73
2023-02-06T00:08:44.113Z,58.67
2023-02-06T00:11:13.782Z,58.66
2023-02-06T00:13:55.254Z,58.37
2023-02-06T00:16:38.388Z,58.69
2023-02-06T00:19:17.352Z,58.26
2023-02-06T00:21:55.528Z,58.30
2023-02-06T00:24:26.835Z,58.77
2023-02-06T00:27:02.938Z,58.99
2023-02-06T00:29:29.748Z,58.27
2023-02-06T00:32:01.582Z,58.65
2023-02-06T00:34:58.022Z,58.48
2023-02-06T00:37:37.363Z,58.32
2023-02-06T00:40:11.332Z,58.90
2023-02-06T00:42:38.388Z,59.27
2023-02-06T00:45:06.834Z,59.29
2023-02-06T00:47:48.085Z,58.81
2023-02-06T00:50:22.815Z,59.08
2023-02-06T00:52:49.610Z,58.95
2023-02-06T00:55:16.728Z,59.10
2023-02-06T00:57:43.657Z,59.70
2023-02-06T01:00:11.313Z,59.42
2023-02-06T01:02:38.182Z,59.41
2023-02-06T01:05:05.476Z,59.21
2023-02-06T01:07:59.121Z,59.13
2023-02-06T01:10:49.678Z,59.56
2023-02-06T01:13:16.571Z,60.62
2023-02-06T01:15:43.695Z,60.61
2023-02-06T01:18:11.324Z,60.09
2023-02-06T01:20:40.524Z,58.65
2023-02-06T01:23:07.397Z,58.57
2023-02-06T01:25:34.707Z,58.18
2023-02-06T01:28:06.046Z,57.30
2023-02-06T01:30:33.147Z,59.20
2023-02-06T01:33:11.748Z,57.00
2023-02-06T01:35:45.264Z,57.45
2023-02-06T01:41:31.722Z,58.29
2023-02-06T01:44:24.674Z,58.66
2023-02-06T01:46:55.164Z,57.52
2023-02-06T01:49:35.633Z,57.98
2023-02-06T01:52:15.857Z,58.04
2023-02-06T01:54:46.261Z,58.56
2023-02-06T01:57:16.512Z,58.25
2023-02-06T01:59:48.788Z,58.24
2023-02-06T02:02:35.887Z,58.29
2023-02-06T02:05:11.988Z,61.65
2023-02-06T02:07:46.568Z,57.32
2023-02-06T02:10:13.638Z,58.65
2023-02-06T02:12:40.818Z,56.64
2023-02-06T02:15:10.049Z,59.41
2023-02-06T02:17:52.071Z,58.02
2023-02-06T02:24:02.931Z,57.14
2023-02-06T02:26:44.752Z,56.96
2023-02-06T02:29:36.823Z,56.10
2023-02-06T02:32:20.441Z,57.83
2023-02-06T02:35:23.880Z,57.57
2023-02-06T02:38:03.124Z,58.33
2023-02-06T02:40:45.789Z,59.33
2023-02-06T02:43:22.964Z,58.85
2023-02-06T02:46:11.221Z,59.97
2023-02-06T02:48:46.517Z,60.04
2023-02-06T02:51:21.312Z,60.54
2023-02-06T02:53:59.792Z,61.12
2023-02-06T02:56:30.154Z,60.59
2023-02-06T02:59:11.575Z,60.41
2023-02-06T03:01:48.676Z,60.77
2023-02-06T03:04:31.376Z,60.99
2023-02-06T03:07:46.248Z,61.67
2023-02-06T03:10:34.093Z,61.57
2023-02-06T03:13:16.616Z,61.76
2023-02-06T03:15:51.145Z,61.99
2023-02-06T03:18:35.166Z,61.64
2023-02-06T03:21:07.274Z,61.19
2023-02-06T03:23:42.494Z,61.15
2023-02-06T03:26:13.781Z,61.07
2023-02-06T03:28:53.274Z,60.95
2023-02-06T03:31:36.097Z,61.97
2023-02-06T03:34:11.376Z,62.09
2023-02-06T03:36:44.361Z,61.61
2023-02-06T03:39:23.637Z,61.92
2023-02-06T03:41:54.990Z,61.94
2023-02-06T03:44:29.396Z,62.38
2023-02-06T03:46:59.607Z,63.45
2023-02-06T03:49:29.862Z,62.02
2023-02-06T03:52:14.521Z,62.68
2023-02-06T03:54:50.997Z,62.03
2023-02-06T03:57:21.928Z,61.83
2023-02-06T03:59:49.449Z,61.95
2023-02-06T04:02:17.965Z,61.66
2023-02-06T04:04:46.235Z,61.12
2023-02-06T04:07:16.325Z,61.99
2023-02-06T04:09:43.379Z,62.45
2023-02-06T04:12:11.884Z,62.30
2023-02-06T04:14:39.524Z,63.42
2023-02-06T04:17:07.236Z,62.06
2023-02-06T04:19:41.637Z,61.76
2023-02-06T04:22:12.353Z,60.44
2023-02-06T04:24:49.508Z,59.59
2023-02-06T04:27:18.144Z,57.40
2023-02-06T04:29:45.093Z,57.39
2023-02-06T04:32:16.836Z,53.67
2023-02-06T04:34:43.788Z,55.74
2023-02-06T04:37:14.963Z,55.44
2023-02-06T04:39:47.215Z,55.10
2023-02-06T04:42:14.365Z,52.50
2023-02-06T04:44:41.269Z,51.96
2023-02-06T04:47:08.316Z,54.77
2023-02-06T04:49:35.346Z,53.90
2023-02-06T04:52:05.761Z,53.64
2023-02-06T04:54:32.869Z,57.65
2023-02-06T04:57:00.009Z,55.15
2023-02-06T04:59:27.365Z,57.36
2023-02-06T05:01:59.802Z,58.19
2023-02-06T05:04:26.828Z,58.58
2023-02-06T05:06:56.244Z,59.27
2023-02-06T05:09:27.910Z,59.92
2023-02-06T05:11:54.878Z,59.96
2023-02-06T05:14:21.924Z,60.82
2023-02-06T05:16:48.955Z,60.05
2023-02-06T05:19:18.157Z,59.99
2023-02-06T05:21:45.117Z,60.62
2023-02-06T05:24:16.047Z,60.47
2023-02-06T05:26:42.788Z,59.87
2023-02-06T05:29:09.589Z,58.33
2023-02-06T05:31:46.429Z,60.04
2023-02-06T05:34:13.265Z,60.76
2023-02-06T05:36:41.159Z,61.71
2023-02-06T05:39:08.663Z,62.40
2023-02-06T05:41:35.730Z,62.99
2023-02-06T05:44:04.507Z,63.96
2023-02-06T05:46:45.074Z,63.94
2023-02-06T05:52:40.618Z,63.66
2023-02-06T05:55:07.982Z,60.80
2023-02-06T05:57:34.733Z,60.71
2023-02-06T06:00:01.581Z,62.84
2023-02-06T06:02:28.366Z,63.66
2023-02-06T06:04:55.183Z,64.06
2023-02-06T06:07:21.967Z,64.38
2023-02-06T06:10:01.179Z,64.77
2023-02-06T06:12:27.969Z,65.24
2023-02-06T06:14:54.888Z,66.34
2023-02-06T06:17:24.641Z,66.78
2023-02-06T06:19:51.421Z,67.20
2023-02-06T06:22:18.200Z,67.89
2023-02-06T06:24:44.986Z,67.23
2023-02-06T06:27:11.970Z,66.70
2023-02-06T06:29:38.768Z,66.56
2023-02-06T06:32:34.596Z,67.31
2023-02-06T06:35:01.553Z,68.20
2023-02-06T06:37:35.097Z,68.08
2023-02-06T06:40:04.416Z,69.38
2023-02-06T06:42:31.323Z,65.05
2023-02-06T06:44:58.932Z,63.87
2023-02-06T06:47:26.151Z,65.10
2023-02-06T06:49:58.587Z,65.86
2023-02-06T06:52:27.837Z,66.55
2023-02-06T06:54:57.643Z,66.61
2023-02-06T06:57:36.436Z,67.16
2023-02-06T07:00:09.304Z,67.34
2023-02-06T07:02:36.201Z,67.66
2023-02-06T07:05:04.300Z,66.88
2023-02-06T07:07:35.654Z,66.65
2023-02-06T07:10:02.438Z,66.57
2023-02-06T07:12:32.802Z,66.22
2023-02-06T07:14:59.664Z,62.64
2023-02-06T07:17:31.982Z,64.46
2023-02-06T07:20:01.900Z,62.30
2023-02-06T07:22:33.111Z,61.93
2023-02-06T07:25:03.099Z,62.54
2023-02-06T07:27:30.305Z,62.06
2023-02-06T07:30:01.696Z,62.36
2023-02-06T07:32:37.019Z,63.19
2023-02-06T07:35:07.333Z,63.65
2023-02-06T07:37:35.612Z,64.75
2023-02-06T07:40:04.685Z,62.31
2023-02-06T07:42:36.320Z,62.21
2023-02-06T07:45:13.265Z,57.02
2023-02-06T07:47:45.816Z,53.29
2023-02-06T07:50:24.536Z,56.12
2023-02-06T07:52:51.335Z,55.87
2023-02-06T07:55:21.206Z,51.96
2023-02-06T07:58:00.304Z,50.47
2023-02-06T08:00:27.119Z,51.56
2023-02-06T08:03:00.334Z,52.47
2023-02-06T08:05:29.135Z,52.72
2023-02-06T08:07:56.085Z,52.27
2023-02-06T08:10:31.981Z,49.29
2023-02-06T08:12:58.849Z,50.24
2023-02-06T08:15:25.606Z,50.28
2023-02-06T08:17:52.870Z,51.25
2023-02-06T08:20:24.513Z,50.56
2023-02-06T08:22:57.210Z,50.15
2023-02-06T08:25:24.336Z,45.78
2023-02-06T08:27:55.432Z,45.76
2023-02-06T08:30:23.047Z,50.52
2023-02-06T08:32:56.790Z,45.22
2023-02-06T08:35:24.393Z,48.87
2023-02-06T08:38:02.972Z,48.43
2023-02-06T08:40:38.272Z,50.04
2023-02-06T08:43:09.679Z,48.27
2023-02-06T08:45:39.842Z,48.38
2023-02-06T08:48:08.750Z,46.99
2023-02-06T08:50:36.142Z,48.20
2023-02-06T08:53:06.795Z,46.56
2023-02-06T08:55:33.795Z,47.00
2023-02-06T08:58:04.861Z,47.04
2023-02-06T09:00:31.622Z,41.20
2023-02-06T09:03:01.306Z,41.50
2023-02-06T09:05:31.652Z,48.71
2023-02-06T09:07:58.616Z,45.81
2023-02-06T09:10:27.681Z,45.36
2023-02-06T09:12:56.086Z,45.37
2023-02-06T09:15:22.891Z,45.95
2023-02-06T09:17:52.634Z,46.39
2023-02-06T09:20:20.433Z,43.19
2023-02-06T09:22:49.615Z,43.18
2023-02-06T09:25:16.647Z,41.31
2023-02-06T09:27:47.500Z,44.03
2023-02-06T09:30:19.063Z,42.10
2023-02-06T09:32:48.292Z,41.02
2023-02-06T09:35:24.682Z,40.40
2023-02-06T09:37:52.208Z,46.22
2023-02-06T09:40:27.775Z,41.28
2023-02-06T09:42:57.918Z,41.60
2023-02-06T09:45:28.985Z,41.67
2023-02-06T09:48:06.586Z,46.04
2023-02-06T09:51:07.850Z,41.59
2023-02-06T09:53:34.590Z,44.14
2023-02-06T09:56:16.999Z,43.25
2023-02-06T09:58:59.778Z,41.82
2023-02-06T10:01:26.399Z,39.96
2023-02-06T10:03:59.139Z,45.17
2023-02-06T10:06:43.625Z,44.18
2023-02-06T10:09:16.384Z,43.84
2023-02-06T10:11:59.917Z,44.20
2023-02-06T10:14:57.238Z,40.10
2023-02-06T10:18:05.683Z,41.43
2023-02-06T10:20:40.421Z,42.61
2023-02-06T10:23:47.662Z,38.30
2023-02-06T10:26:19.751Z,42.78
2023-02-06T10:28:56.206Z,42.72
2023-02-06T10:31:41.419Z,42.95
2023-02-06T10:34:35.768Z,40.17
2023-02-06T10:37:30.899Z,40.21
2023-02-06T10:40:25.319Z,39.64
2023-02-06T10:43:21.925Z,40.96
2023-02-06T10:46:12.172Z,42.70
2023-02-06T10:48:45.587Z,39.76
2023-02-06T10:51:24.087Z,41.65
2023-02-06T10:53:56.790Z,41.46
2023-02-06T10:57:14.619Z,43.20
2023-02-06T10:59:48.418Z,42.94
2023-02-06T11:03:01.325Z,42.53
2023-02-06T11:05:34.741Z,40.53
2023-02-06T11:08:39.427Z,38.22
2023-02-06T11:11:31.596Z,41.59
2023-02-06T11:14:23.188Z,41.49
2023-02-06T11:17:05.306Z,38.84
2023-02-06T11:19:40.479Z,41.75
2023-02-06T11:22:09.345Z,43.61
2023-02-06T11:25:05.071Z,42.96
2023-02-06T11:27:33.871Z,40.40
2023-02-06T11:30:08.975Z,40.77
2023-02-06T11:32:52.777Z,42.65
2023-02-06T11:35:41.541Z,41.43
2023-02-06T11:38:20.086Z,41.69
2023-02-06T11:41:03.044Z,43.26
2023-02-06T11:44:02.843Z,42.68
2023-02-06T11:46:38.040Z,42.29
2023-02-06T11:49:26.842Z,42.64
2023-02-06T11:52:03.941Z,43.42
2023-02-06T11:54:35.360Z,42.75
2023-02-06T11:57:19.619Z,42.27
2023-02-06T11:59:58.047Z,42.72
2023-02-06T12:02:36.485Z,42.57
2023-02-06T12:05:18.424Z,40.69
2023-02-06T12:07:57.657Z,42.11
2023-02-06T12:10:29.245Z,41.67
2023-02-06T12:13:03.561Z,42.89
2023-02-06T12:15:46.420Z,40.82
2023-02-06T12:18:39.545Z,43.01
2023-02-06T12:21:41.157Z,41.20
2023-02-06T12:24:50.287Z,42.51
2023-02-06T12:27:39.434Z,42.92
2023-02-06T12:30:24.994Z,41.81
2023-02-06T12:33:25.349Z,43.98
2023-02-06T12:36:21.016Z,40.37
2023-02-06T12:39:06.279Z,43.54
2023-02-06T12:41:55.099Z,43.41
2023-02-06T12:44:21.857Z,43.10
2023-02-06T12:47:00.606Z,42.98
2023-02-06T12:49:42.148Z,39.61
2023-02-06T12:52:22.676Z,41.92
2023-02-06T12:55:12.513Z,42.78
2023-02-06T12:57:44.937Z,41.36
2023-02-06T13:00:22.262Z,40.42
2023-02-06T13:03:33.040Z,39.64
2023-02-06T13:06:31.141Z,38.57
2023-02-06T13:09:06.039Z,42.43
2023-02-06T13:11:41.573Z,42.20
2023-02-06T13:14:32.574Z,42.10
2023-02-06T13:17:22.153Z,40.13
2023-02-06T13:20:12.460Z,41.29
2023-02-06T13:23:23.082Z,41.50
2023-02-06T13:25:53.334Z,42.30
2023-02-06T13:28:32.291Z,41.93
2023-02-06T13:31:44.908Z,41.50
2023-02-06T13:34:18.012Z,40.98
2023-02-06T13:36:51.399Z,39.06
2023-02-06T13:39:31.970Z,38.68
2023-02-06T13:42:25.088Z,39.42
2023-02-06T13:44:56.223Z,42.08
2023-02-06T13:48:11.960Z,40.38
2023-02-06T13:51:05.290Z,39.68
2023-02-06T13:54:06.182Z,41.13
2023-02-06T13:56:57.265Z,41.81
2023-02-06T13:59:36.798Z,41.88
2023-02-06T14:05:39.225Z,41.74
2023-02-06T14:08:30.575Z,39.55
2023-02-06T14:11:27.230Z,40.33
2023-02-06T14:14:03.496Z,39.11
2023-02-06T14:17:30.099Z,41.62
2023-02-06T14:20:21.851Z,41.79
2023-02-06T14:23:03.097Z,41.24
2023-02-06T14:25:59.927Z,42.14
2023-02-06T14:29:17.636Z,37.93
2023-02-06T14:32:07.785Z,41.03
2023-02-06T14:34:43.888Z,40.09
2023-02-06T14:37:46.167Z,39.22
2023-02-06T14:40:23.000Z,37.02
2023-02-06T14:42:59.268Z,41.47
2023-02-06T14:45:41.750Z,41.03
2023-02-06T14:48:18.041Z,40.15
2023-02-06T14:50:50.996Z,41.59
2023-02-06T14:53:28.455Z,41.49
2023-02-06T14:56:16.123Z,41.24
2023-02-06T14:58:46.662Z,41.73
2023-02-06T15:01:21.047Z,41.41
2023-02-06T15:03:50.264Z,41.42
2023-02-06T15:06:34.206Z,37.35
2023-02-06T15:09:05.418Z,41.84
2023-02-06T15:11:35.177Z,41.51
2023-02-06T15:14:06.519Z,41.35
2023-02-06T15:16:49.226Z,40.66
2023-02-06T15:19:22.416Z,41.07
2023-02-06T15:21:51.421Z,41.30
2023-02-06T15:24:27.316Z,41.93
2023-02-06T15:27:25.858Z,41.75
2023-02-06T15:29:58.759Z,41.85
2023-02-06T15:32:31.634Z,41.12
2023-02-06T15:35:00.155Z,41.62
2023-02-06T15:37:36.430Z,41.38
2023-02-06T15:40:17.262Z,41.08
2023-02-06T15:42:44.757Z,40.11
2023-02-06T15:45:39.268Z,41.74
2023-02-06T15:48:57.758Z,38.65
2023-02-06T15:51:29.223Z,40.88
2023-02-06T15:54:17.983Z,41.61
2023-02-06T15:56:52.229Z,40.86
2023-02-06T15:59:31.371Z,41.46
2023-02-06T16:01:58.820Z,40.92
2023-02-06T16:04:42.368Z,41.56
2023-02-06T16:07:29.812Z,41.06
2023-02-06T16:10:08.686Z,41.59
2023-02-06T16:12:37.993Z,41.24
2023-02-06T16:15:21.194Z,41.74
2023-02-06T16:17:47.939Z,41.56
2023-02-06T16:20:37.066Z,40.86
2023-02-06T16:23:40.727Z,41.65
2023-02-06T16:26:32.300Z,42.07
2023-02-06T16:29:13.764Z,42.21
2023-02-06T16:32:19.552Z,38.09
2023-02-06T16:34:48.785Z,40.64
2023-02-06T16:37:18.858Z,43.04
2023-02-06T16:39:48.568Z,42.73
2023-02-06T16:42:38.516Z,40.62
2023-02-06T16:45:30.034Z,43.18
2023-02-06T16:47:57.002Z,40.39
2023-02-06T16:50:27.719Z,41.27
2023-02-06T16:53:01.110Z,39.39
2023-02-06T16:55:29.136Z,39.66
2023-02-06T16:58:01.998Z,39.89
2023-02-06T17:03:08.378Z,41.61
2023-02-06T17:05:37.697Z,42.33
2023-02-06T17:08:26.361Z,42.42
2023-02-06T17:10:53.410Z,42.14
2023-02-06T17:13:25.244Z,41.97
2023-02-06T17:15:53.396Z,42.55
2023-02-06T17:18:22.580Z,42.21
2023-02-06T17:20:52.926Z,42.63
2023-02-06T17:23:20.849Z,41.92
2023-02-06T17:25:59.847Z,42.05
2023-02-06T17:28:29.994Z,42.32
2023-02-06T17:30:56.934Z,42.23
2023-02-06T17:33:26.711Z,42.06
2023-02-06T17:35:53.716Z,40.37
2023-02-06T17:38:20.791Z,42.35
2023-02-06T17:40:52.086Z,42.41
2023-02-06T17:43:19.020Z,41.21
2023-02-06T17:45:46.121Z,43.52
2023-02-06T17:48:14.351Z,41.22
2023-02-06T17:50:48.079Z,43.08
2023-02-06T17:53:18.474Z,42.38
2023-02-06T17:55:48.040Z,42.96
2023-02-06T17:58:15.100Z,42.31
2023-02-06T18:00:42.728Z,43.71
2023-02-06T18:03:09.905Z,41.04
2023-02-06T18:05:48.314Z,44.38
2023-02-06T18:08:18.762Z,43.26
2023-02-06T18:10:45.663Z,42.60
2023-02-06T18:13:18.041Z,45.10
2023-02-06T18:15:53.146Z,41.34
2023-02-06T18:18:23.560Z,41.68
2023-02-06T18:20:53.646Z,46.26
2023-02-06T18:23:23.224Z,46.59
2023-02-06T18:25:50.402Z,42.94
2023-02-06T18:28:18.287Z,45.06
2023-02-06T18:30:45.502Z,44.61
2023-02-06T18:36:05.587Z,42.73
2023-02-06T18:38:38.369Z,44.49
2023-02-06T18:41:06.646Z,44.89
2023-02-06T18:43:35.361Z,47.31
2023-02-06T18:46:14.898Z,45.67
2023-02-06T18:48:41.929Z,46.48
2023-02-06T18:51:11.590Z,44.54
2023-02-06T18:53:41.568Z,46.24
2023-02-06T18:56:14.062Z,48.81
2023-02-06T18:58:41.940Z,46.41
2023-02-06T19:01:20.629Z,45.93
2023-02-06T19:03:54.450Z,46.30
2023-02-06T19:06:33.705Z,46.17
2023-02-06T19:09:09.678Z,47.22
2023-02-06T19:11:38.357Z,47.62
2023-02-06T19:14:06.546Z,48.81
2023-02-06T19:16:41.317Z,49.81
2023-02-06T19:19:13.902Z,51.88
2023-02-06T19:21:41.129Z,49.88
2023-02-06T19:24:10.817Z,48.97
2023-02-06T19:26:37.696Z,46.76
2023-02-06T19:29:13.324Z,49.49
2023-02-06T19:31:46.911Z,48.00
2023-02-06T19:34:20.369Z,43.19
2023-02-06T19:36:48.833Z,44.90
2023-02-06T19:39:15.656Z,47.73
2023-02-06T19:41:45.532Z,45.89
2023-02-06T19:44:16.838Z,47.61
2023-02-06T19:46:43.784Z,47.54
2023-02-06T19:49:11.515Z,49.73
2023-02-06T19:51:43.229Z,50.80
2023-02-06T19:54:10.065Z,49.04
2023-02-06T19:56:42.971Z,48.63
2023-02-06T19:59:19.253Z,48.10
2023-02-06T20:01:51.371Z,46.32
2023-02-06T20:04:20.566Z,44.64
2023-02-06T20:06:50.182Z,45.67
2023-02-06T20:09:18.882Z,49.31
2023-02-06T20:11:47.887Z,47.42
2023-02-06T20:14:25.577Z,47.74
2023-02-06T20:16:58.441Z,48.42
2023-02-06T20:19:31.164Z,47.88
2023-02-06T20:22:00.853Z,50.95
2023-02-06T20:24:44.523Z,50.22
2023-02-06T20:27:15.450Z,46.21
2023-02-06T20:29:49.815Z,49.85
2023-02-06T20:32:19.970Z,48.71
2023-02-06T20:34:52.695Z,47.93
2023-02-06T20:37:21.753Z,43.67
2023-02-06T20:40:00.078Z,47.05
2023-02-06T20:42:31.620Z,47.66
2023-02-06T20:45:01.199Z,47.94
2023-02-06T20:47:31.217Z,46.30
2023-02-06T20:50:07.376Z,45.89
2023-02-06T20:52:47.038Z,48.78
2023-02-06T20:55:14.614Z,46.85
2023-02-06T20:57:51.758Z,49.45
2023-02-06T21:00:19.363Z,48.93
2023-02-06T21:02:53.087Z,46.91
2023-02-06T21:05:20.688Z,45.25
2023-02-06T21:07:48.141Z,46.80
2023-02-06T21:10:17.991Z,45.03
2023-02-06T21:12:57.782Z,48.81
2023-02-06T21:15:24.879Z,46.59
2023-02-06T21:17:51.695Z,48.22
2023-02-06T21:20:18.785Z,49.87
2023-02-06T21:23:03.821Z,49.90
2023-02-06T21:25:30.666Z,47.56
2023-02-06T21:28:14.573Z,49.24
2023-02-06T21:30:44.444Z,44.65
2023-02-06T21:33:22.043Z,47.16
2023-02-06T21:36:05.185Z,47.24
2023-02-06T21:38:46.556Z,47.35
2023-02-06T21:41:24.282Z,45.08
2023-02-06T21:43:52.421Z,45.92
2023-02-06T21:46:22.803Z,47.25
2023-02-06T21:48:56.105Z,52.15
2023-02-06T21:51:29.631Z,48.50
2023-02-06T21:54:04.758Z,50.02
2023-02-06T21:56:39.105Z,51.69
2023-02-06T21:59:10.658Z,50.92
2023-02-06T22:01:40.913Z,51.72
2023-02-06T22:04:13.827Z,52.47
2023-02-06T22:06:43.468Z,52.94
2023-02-06T22:09:24.361Z,54.12
2023-02-06T22:14:50.066Z,54.00
2023-02-06T22:17:17.255Z,54.24
2023-02-06T22:19:47.580Z,54.19
2023-02-06T22:22:29.924Z,54.10
2023-02-06T22:25:22.565Z,51.81
2023-02-06T22:28:19.977Z,54.29
2023-02-06T22:36:19.397Z,54.32
2023-02-06T22:38:47.675Z,53.55
2023-02-06T22:41:17.468Z,51.94
2023-02-06T22:43:49.999Z,54.20
2023-02-06T22:46:41.506Z,49.31
2023-02-06T22:49:13.958Z,52.81
2023-02-06T22:51:45.376Z,48.69
2023-02-06T22:54:22.609Z,49.38
2023-02-06T22:56:49.689Z,53.13
2023-02-06T22:59:24.814Z,50.90
2023-02-06T23:01:59.144Z,50.92
2023-02-06T23:04:41.435Z,51.81
2023-02-06T23:07:16.986Z,55.03
2023-02-06T23:09:45.392Z,53.39
2023-02-06T23:12:14.152Z,53.56
2023-02-06T23:14:41.219Z,53.70
2023-02-06T23:17:10.728Z,54.21
2023-02-06T23:19:44.108Z,55.69
2023-02-06T23:22:14.266Z,54.16
2023-02-06T23:24:45.770Z,54.85
2023-02-06T23:27:14.325Z,56.27
2023-02-06T23:29:41.210Z,55.53
2023-02-06T23:32:11.959Z,56.11
2023-02-06T23:34:42.925Z,56.71
2023-02-06T23:37:11.124Z,57.24
2023-02-06T23:39:41.352Z,58.66
2023-02-06T23:42:11.207Z,59.33
2023-02-06T23:44:37.957Z,59.25
2023-02-06T23:47:12.079Z,59.01
2023-02-06T23:49:38.903Z,59.53
2023-02-06T23:52:16.512Z,60.14
2023-02-06T23:54:49.214Z,60.07
2023-02-06T23:57:20.095Z,59.26
2023-02-06T23:59:49.910Z,59.76
